Time;durP1;ratioP1;P1;durP2;ratioP2;P2;SDS_P1;SDS_P2;PMS_P1;PMS_P2;Temp;Humidity;BMP_temperature;BMP_pressure;BME280_temperature;BME280_humidity;BME280_pressure;Samples;Min_cycle;Max_cycle;Signal;HPM_P1;HPM_P2
2022/03/24 00:01:48;;;;;;;41.77;18.67;;;;;;;;;;4449978;32;20217;-52
2022/03/24 00:04:14;;;;;;;49.27;19.37;;;;;;;;;;4451226;32;20232;-53
2022/03/24 00:06:40;;;;;;;41.20;19.73;;;;;;;;;;4454370;32;20251;-52
2022/03/24 00:09:05;;;;;;;50.50;19.30;;;;;;;;;;4450208;32;20267;-51
2022/03/24 00:11:31;;;;;;;43.07;17.83;;;;;;;;;;4461452;32;20549;-52
2022/03/24 00:13:57;;;;;;;34.53;18.07;;;;;;;;;;4456026;32;20278;-51
2022/03/24 00:16:22;;;;;;;49.00;17.33;;;;;;;;;;4450070;32;20335;-51
2022/03/24 00:18:47;;;;;;;34.53;15.57;;;;;;;;;;4450197;32;20220;-52
2022/03/24 00:21:14;;;;;;;44.37;19.57;;;;;;;;;;4450048;32;20546;-52
2022/03/24 00:23:39;;;;;;;41.30;18.43;;;;;;;;;;4449945;32;20349;-51
2022/03/24 00:26:04;;;;;;;23.77;12.53;;;;;;;;;;4448925;32;20390;-52
2022/03/24 00:28:31;;;;;;;29.00;13.63;;;;;;;;;;4449869;32;20448;-51
2022/03/24 00:30:57;;;;;;;28.00;13.37;;;;;;;;;;4449962;32;20232;-52
2022/03/24 00:33:23;;;;;;;24.23;11.77;;;;;;;;;;4450119;32;20340;-52
2022/03/24 00:35:50;;;;;;;42.67;12.73;;;;;;;;;;4449536;32;20565;-52
2022/03/24 00:38:16;;;;;;;25.57;10.83;;;;;;;;;;4448657;32;20363;-52
2022/03/24 00:40:41;;;;;;;18.63;9.03;;;;;;;;;;4449790;32;20696;-52
2022/03/24 00:43:08;;;;;;;22.07;10.33;;;;;;;;;;4449720;32;20624;-52
2022/03/24 00:45:34;;;;;;;22.43;10.50;;;;;;;;;;4462493;32;20575;-51
2022/03/24 00:47:59;;;;;;;20.73;10.00;;;;;;;;;;4459899;32;20237;-52
2022/03/24 00:50:25;;;;;;;25.33;9.87;;;;;;;;;;4449940;32;20300;-52
2022/03/24 00:52:50;;;;;;;20.50;10.70;;;;;;;;;;4449878;32;20282;-51
2022/03/24 00:55:18;;;;;;;23.80;11.77;;;;;;;;;;4449356;32;20398;-51
2022/03/24 00:57:48;;;;;;;25.83;10.07;;;;;;;;;;4449532;32;20258;-52
2022/03/24 01:00:17;;;;;;;20.97;9.80;;;;;;;;;;4448172;32;20260;-52
2022/03/24 01:02:44;;;;;;;18.47;8.87;;;;;;;;;;4449686;32;20224;-51
2022/03/24 01:05:13;;;;;;;22.60;10.47;;;;;;;;;;4449103;32;20251;-51
2022/03/24 01:07:39;;;;;;;32.93;12.93;;;;;;;;;;4449355;32;20632;-51
2022/03/24 01:10:06;;;;;;;42.37;15.03;;;;;;;;;;4447818;32;20442;-52
2022/03/24 01:12:32;;;;;;;34.40;15.90;;;;;;;;;;4448132;32;20307;-52
2022/03/24 01:14:58;;;;;;;40.97;16.47;;;;;;;;;;4449224;32;20344;-51
2022/03/24 01:17:26;;;;;;;44.63;15.63;;;;;;;;;;4449181;32;20686;-51
2022/03/24 01:19:52;;;;;;;26.13;13.90;;;;;;;;;;4449221;32;20205;-52
2022/03/24 01:22:18;;;;;;;26.10;11.97;;;;;;;;;;4449419;32;20272;-51
2022/03/24 01:24:45;;;;;;;29.60;12.60;;;;;;;;;;4449264;32;20291;-51
2022/03/24 01:27:14;;;;;;;29.00;12.40;;;;;;;;;;4449201;32;20538;-52
2022/03/24 01:29:40;;;;;;;24.17;11.13;;;;;;;;;;4448805;32;20235;-52
2022/03/24 01:32:06;;;;;;;27.00;8.97;;;;;;;;;;4449090;32;20295;-52
2022/03/24 01:34:31;;;;;;;20.00;8.87;;;;;;;;;;4449175;32;20334;-51
2022/03/24 01:36:57;;;;;;;24.40;9.10;;;;;;;;;;4448858;32;20626;-52
2022/03/24 01:39:22;;;;;;;19.50;10.70;;;;;;;;;;4449074;32;20256;-51
2022/03/24 01:41:48;;;;;;;31.97;13.93;;;;;;;;;;4448805;32;20236;-51
2022/03/24 01:44:16;;;;;;;42.30;19.83;;;;;;;;;;4454014;32;20388;-52
2022/03/24 01:46:59;;;;;;;41.27;15.30;;;;;;;;;;4464314;32;20609;-51
2022/03/24 01:49:30;;;;;;;37.73;16.97;;;;;;;;;;4450410;32;20705;-50
2022/03/24 01:51:56;;;;;;;38.23;15.30;;;;;;;;;;4448986;32;20619;-51
2022/03/24 01:54:22;;;;;;;35.73;13.20;;;;;;;;;;4448831;32;20365;-50
2022/03/24 01:56:49;;;;;;;35.30;14.97;;;;;;;;;;4446932;32;20354;-51
2022/03/24 01:59:16;;;;;;;32.17;15.53;;;;;;;;;;4448537;32;20601;-51
2022/03/24 02:01:43;;;;;;;33.70;14.93;;;;;;;;;;4461793;32;20589;-51
2022/03/24 02:04:09;;;;;;;30.17;12.97;;;;;;;;;;4463906;32;20239;-51
2022/03/24 02:06:35;;;;;;;26.43;15.17;;;;;;;;;;4458434;32;20632;-51
2022/03/24 02:09:01;;;;;;;34.77;17.07;;;;;;;;;;4464322;32;20232;-51
2022/03/24 02:11:27;;;;;;;42.87;17.87;;;;;;;;;;4452776;32;20212;-51
2022/03/24 02:13:55;;;;;;;37.03;19.43;;;;;;;;;;4448385;32;20295;-51
2022/03/24 02:16:21;;;;;;;42.10;21.53;;;;;;;;;;4448230;32;20268;-51
2022/03/24 02:18:47;;;;;;;57.60;26.53;;;;;;;;;;4448529;32;20565;-50
2022/03/24 02:21:14;;;;;;;50.67;23.97;;;;;;;;;;4448028;32;20291;-51
2022/03/24 02:23:44;;;;;;;59.23;21.27;;;;;;;;;;4448446;32;20287;-51
2022/03/24 02:26:10;;;;;;;51.03;21.47;;;;;;;;;;4448124;32;20213;-50
2022/03/24 02:28:36;;;;;;;36.67;16.70;;;;;;;;;;4448255;32;20346;-51
2022/03/24 02:31:04;;;;;;;36.03;16.80;;;;;;;;;;4447837;32;20570;-51
2022/03/24 02:33:30;;;;;;;34.90;15.93;;;;;;;;;;4447836;32;20229;-50
2022/03/24 02:35:56;;;;;;;43.77;22.10;;;;;;;;;;4447875;32;20616;-52
2022/03/24 02:38:22;;;;;;;47.73;25.03;;;;;;;;;;4448453;32;20289;-51
2022/03/24 02:40:51;;;;;;;48.13;23.23;;;;;;;;;;4448169;32;20448;-51
2022/03/24 02:43:19;;;;;;;43.77;22.43;;;;;;;;;;4448239;32;20224;-51
2022/03/24 02:45:46;;;;;;;50.17;22.80;;;;;;;;;;4447513;32;20640;-50
2022/03/24 02:48:14;;;;;;;51.53;23.27;;;;;;;;;;4447954;32;20320;-50
2022/03/24 02:50:39;;;;;;;53.37;23.30;;;;;;;;;;4448438;32;20320;-52
2022/03/24 02:53:05;;;;;;;103.77;41.73;;;;;;;;;;4447900;32;20337;-51
2022/03/24 02:55:31;;;;;;;96.80;41.10;;;;;;;;;;4447834;32;20706;-53
2022/03/24 02:57:56;;;;;;;81.10;36.67;;;;;;;;;;4448080;32;20858;-51
2022/03/24 03:00:25;;;;;;;90.97;39.10;;;;;;;;;;4447667;32;20355;-51
2022/03/24 03:02:55;;;;;;;91.90;39.30;;;;;;;;;;4458059;32;20636;-53
2022/03/24 03:05:21;;;;;;;65.03;28.43;;;;;;;;;;4457488;32;20311;-51
2022/03/24 03:07:48;;;;;;;41.73;19.67;;;;;;;;;;4463331;32;20325;-51
2022/03/24 03:10:14;;;;;;;45.20;17.80;;;;;;;;;;4459669;32;20325;-51
2022/03/24 03:12:40;;;;;;;39.23;16.57;;;;;;;;;;4447672;32;20224;-51
2022/03/24 03:15:06;;;;;;;30.23;13.57;;;;;;;;;;4447759;32;20333;-52
2022/03/24 03:17:36;;;;;;;27.67;14.27;;;;;;;;;;4447704;32;20259;-53
2022/03/24 03:20:02;;;;;;;35.23;15.80;;;;;;;;;;4447868;32;20200;-51
2022/03/24 03:22:27;;;;;;;29.27;15.03;;;;;;;;;;4447679;32;20369;-52
2022/03/24 03:24:53;;;;;;;28.50;14.53;;;;;;;;;;4447940;32;20704;-51
2022/03/24 03:27:18;;;;;;;27.17;14.20;;;;;;;;;;4447696;32;20202;-50
2022/03/24 03:29:44;;;;;;;30.70;13.57;;;;;;;;;;4447714;32;20721;-51
2022/03/24 03:32:10;;;;;;;36.37;15.53;;;;;;;;;;4446380;32;20312;-51
2022/03/24 03:34:37;;;;;;;31.00;13.77;;;;;;;;;;4447613;32;20591;-51
2022/03/24 03:37:04;;;;;;;33.57;15.50;;;;;;;;;;4446522;32;20656;-54
2022/03/24 03:39:29;;;;;;;92.60;39.63;;;;;;;;;;4447917;32;20224;-50
2022/03/24 03:41:55;;;;;;;62.40;32.77;;;;;;;;;;4461602;32;20306;-52
2022/03/24 03:44:21;;;;;;;87.00;35.67;;;;;;;;;;4463277;32;20261;-50
2022/03/24 03:46:47;;;;;;;58.97;25.37;;;;;;;;;;4463147;32;20205;-51
2022/03/24 03:49:13;;;;;;;35.00;16.70;;;;;;;;;;4463159;32;20236;-51
2022/03/24 03:51:39;;;;;;;33.57;17.30;;;;;;;;;;4463116;32;20361;-50
2022/03/24 03:54:07;;;;;;;26.30;12.73;;;;;;;;;;4457227;32;20299;-50
2022/03/24 03:56:34;;;;;;;33.80;16.30;;;;;;;;;;4447645;32;20232;-51
2022/03/24 03:59:00;;;;;;;35.87;17.00;;;;;;;;;;4447774;32;20259;-52
2022/03/24 04:01:26;;;;;;;38.87;17.53;;;;;;;;;;4448581;32;20684;-51
2022/03/24 04:03:52;;;;;;;35.73;18.67;;;;;;;;;;4463019;32;20240;-51
2022/03/24 04:06:17;;;;;;;29.70;16.00;;;;;;;;;;4457314;32;20654;-51
2022/03/24 04:08:44;;;;;;;31.63;15.83;;;;;;;;;;4462115;32;20246;-50
2022/03/24 04:11:12;;;;;;;30.60;14.90;;;;;;;;;;4453642;32;20284;-50
2022/03/24 04:13:39;;;;;;;35.33;18.30;;;;;;;;;;4447116;32;20228;-50
2022/03/24 04:16:06;;;;;;;37.00;16.83;;;;;;;;;;4447492;32;20501;-50
2022/03/24 04:18:32;;;;;;;37.70;18.13;;;;;;;;;;4447585;32;20240;-52
2022/03/24 04:20:57;;;;;;;54.87;23.50;;;;;;;;;;4448721;32;20573;-51
2022/03/24 04:23:23;;;;;;;50.83;26.07;;;;;;;;;;4450598;32;20287;-51
2022/03/24 04:25:49;;;;;;;42.57;21.37;;;;;;;;;;4450315;32;20284;-50
2022/03/24 04:28:15;;;;;;;51.30;21.57;;;;;;;;;;4449925;32;20684;-51
2022/03/24 04:30:42;;;;;;;52.07;24.13;;;;;;;;;;4450174;32;20263;-52
2022/03/24 04:33:08;;;;;;;45.37;23.43;;;;;;;;;;4448648;32;20680;-49
2022/03/24 04:35:33;;;;;;;53.27;25.00;;;;;;;;;;4450143;32;20298;-51
2022/03/24 04:37:59;;;;;;;43.23;23.53;;;;;;;;;;4449772;32;20553;-51
2022/03/24 04:40:25;;;;;;;35.83;21.70;;;;;;;;;;4450029;32;20313;-53
2022/03/24 04:42:52;;;;;;;45.27;23.13;;;;;;;;;;4449776;32;20331;-51
2022/03/24 04:45:19;;;;;;;43.57;21.40;;;;;;;;;;4449799;32;20205;-51
2022/03/24 04:47:45;;;;;;;46.27;22.00;;;;;;;;;;4449572;32;20314;-51
2022/03/24 04:50:12;;;;;;;42.40;22.10;;;;;;;;;;4450156;32;20196;-51
2022/03/24 04:52:38;;;;;;;58.87;24.87;;;;;;;;;;4449847;32;20224;-51
2022/03/24 04:55:07;;;;;;;51.07;24.93;;;;;;;;;;4449756;32;20283;-51
2022/03/24 04:57:32;;;;;;;53.10;23.47;;;;;;;;;;4449285;32;20246;-51
2022/03/24 04:59:58;;;;;;;74.97;34.57;;;;;;;;;;4452106;32;20291;-52
2022/03/24 05:02:24;;;;;;;85.07;44.93;;;;;;;;;;4457717;32;20209;-51
2022/03/24 05:04:50;;;;;;;85.13;41.30;;;;;;;;;;4453911;32;20290;-50
2022/03/24 05:07:16;;;;;;;70.30;35.97;;;;;;;;;;4464448;32;20299;-51
2022/03/24 05:09:42;;;;;;;69.00;35.07;;;;;;;;;;4465255;32;20293;-52
2022/03/24 05:12:08;;;;;;;83.23;37.77;;;;;;;;;;4449059;32;20716;-51
2022/03/24 05:14:33;;;;;;;89.37;42.97;;;;;;;;;;4449283;32;20295;-51
2022/03/24 05:17:01;;;;;;;94.17;43.60;;;;;;;;;;4449561;32;20226;-51
2022/03/24 05:19:27;;;;;;;97.70;40.87;;;;;;;;;;4449807;32;20365;-50
2022/03/24 05:21:52;;;;;;;86.60;42.60;;;;;;;;;;4449561;32;20226;-50
2022/03/24 05:24:18;;;;;;;76.37;41.43;;;;;;;;;;4449304;32;20549;-51
2022/03/24 05:26:44;;;;;;;88.13;40.33;;;;;;;;;;4449360;32;20225;-51
2022/03/24 05:29:11;;;;;;;74.80;42.70;;;;;;;;;;4449284;32;20229;-51
2022/03/24 05:31:37;;;;;;;109.63;53.07;;;;;;;;;;4448851;32;20294;-51
2022/03/24 05:34:03;;;;;;;92.47;49.17;;;;;;;;;;4460606;32;20668;-51
2022/03/24 05:36:28;;;;;;;86.23;40.07;;;;;;;;;;4464940;32;20223;-51
2022/03/24 05:38:54;;;;;;;85.30;34.13;;;;;;;;;;4465047;32;20228;-51
2022/03/24 05:41:19;;;;;;;60.07;31.33;;;;;;;;;;4464225;32;20640;-51
2022/03/24 05:44:02;;;;;;;82.53;34.07;;;;;;;;;;4464646;32;20287;-51
2022/03/24 05:46:36;;;;;;;85.43;38.13;;;;;;;;;;4464399;32;20215;-52
2022/03/24 05:49:04;;;;;;;81.27;39.47;;;;;;;;;;4448231;32;20650;-51
2022/03/24 05:51:30;;;;;;;92.97;43.67;;;;;;;;;;4448389;32;20235;-51
2022/03/24 05:53:55;;;;;;;76.87;37.87;;;;;;;;;;4448698;32;20319;-52
2022/03/24 05:56:22;;;;;;;77.33;35.83;;;;;;;;;;4448047;32;20220;-53
2022/03/24 05:58:48;;;;;;;85.40;40.30;;;;;;;;;;4448690;32;20260;-52
2022/03/24 06:01:15;;;;;;;87.13;39.87;;;;;;;;;;4448882;32;20362;-51
2022/03/24 06:03:44;;;;;;;79.27;39.77;;;;;;;;;;4449119;32;20232;-51
2022/03/24 06:06:10;;;;;;;84.83;41.63;;;;;;;;;;4463706;32;20259;-51
2022/03/24 06:08:36;;;;;;;94.97;42.93;;;;;;;;;;4463410;32;20375;-51
2022/03/24 06:11:02;;;;;;;83.00;39.97;;;;;;;;;;4464726;32;20327;-52
2022/03/24 06:13:28;;;;;;;86.07;40.37;;;;;;;;;;4464092;32;20330;-53
2022/03/24 06:15:53;;;;;;;82.27;39.27;;;;;;;;;;4464138;32;20320;-53
2022/03/24 06:18:20;;;;;;;74.73;37.50;;;;;;;;;;4463788;32;20287;-51
2022/03/24 06:20:45;;;;;;;70.97;33.83;;;;;;;;;;4458213;32;20315;-53
2022/03/24 06:23:12;;;;;;;64.40;33.03;;;;;;;;;;4447920;32;20299;-60
2022/03/24 06:25:38;;;;;;;63.10;31.37;;;;;;;;;;4447379;32;20208;-52
2022/03/24 06:28:05;;;;;;;47.80;24.33;;;;;;;;;;4447814;32;20318;-51
2022/03/24 06:30:31;;;;;;;51.97;20.50;;;;;;;;;;4448183;32;20208;-52
2022/03/24 06:32:57;;;;;;;34.07;16.10;;;;;;;;;;4447676;32;20589;-51
2022/03/24 06:35:22;;;;;;;30.37;14.77;;;;;;;;;;4448027;32;20505;-53
2022/03/24 06:37:48;;;;;;;43.17;17.87;;;;;;;;;;4449556;32;20248;-53
2022/03/24 06:40:14;;;;;;;27.40;13.70;;;;;;;;;;4464079;32;20430;-54
2022/03/24 06:42:40;;;;;;;20.87;11.47;;;;;;;;;;4462342;32;20251;-52
2022/03/24 06:45:07;;;;;;;19.80;11.40;;;;;;;;;;4462424;32;20295;-55
2022/03/24 06:47:33;;;;;;;32.57;11.97;;;;;;;;;;4462045;32;20295;-52
2022/03/24 06:49:59;;;;;;;22.53;12.40;;;;;;;;;;4448039;32;20275;-52
2022/03/24 06:52:24;;;;;;;27.73;13.57;;;;;;;;;;4455985;32;20339;-52
2022/03/24 06:54:51;;;;;;;25.17;13.07;;;;;;;;;;4447462;32;20303;-51
2022/03/24 06:57:16;;;;;;;18.70;9.97;;;;;;;;;;4447386;32;20302;-52
2022/03/24 06:59:42;;;;;;;20.97;12.03;;;;;;;;;;4461819;32;20287;-51
2022/03/24 07:02:08;;;;;;;18.00;10.50;;;;;;;;;;4455643;32;20692;-52
2022/03/24 07:04:34;;;;;;;25.93;12.57;;;;;;;;;;4452770;32;20366;-52
2022/03/24 07:07:00;;;;;;;18.30;10.23;;;;;;;;;;4451104;32;20235;-51
2022/03/24 07:09:26;;;;;;;19.67;10.90;;;;;;;;;;4447524;32;20708;-53
2022/03/24 07:11:52;;;;;;;17.07;10.10;;;;;;;;;;4445680;32;20652;-52
2022/03/24 07:14:18;;;;;;;22.43;10.10;;;;;;;;;;4445827;32;20244;-53
2022/03/24 07:16:44;;;;;;;20.97;12.20;;;;;;;;;;4445590;32;20666;-52
2022/03/24 07:19:09;;;;;;;20.10;12.07;;;;;;;;;;4445007;32;20247;-53
2022/03/24 07:21:35;;;;;;;31.17;12.60;;;;;;;;;;4445520;32;20422;-53
2022/03/24 07:24:01;;;;;;;21.43;11.30;;;;;;;;;;4454084;32;20267;-53
2022/03/24 07:26:26;;;;;;;31.47;14.03;;;;;;;;;;4461962;32;20268;-53
2022/03/24 07:28:52;;;;;;;27.03;11.97;;;;;;;;;;4463173;32;20223;-53
2022/03/24 07:31:19;;;;;;;25.53;12.93;;;;;;;;;;4462698;32;20264;-53
2022/03/24 07:33:45;;;;;;;29.57;14.80;;;;;;;;;;4462733;32;20235;-53
2022/03/24 07:36:12;;;;;;;28.60;13.33;;;;;;;;;;4463116;32;20212;-52
2022/03/24 07:38:38;;;;;;;25.57;13.60;;;;;;;;;;4462620;32;20254;-53
2022/03/24 07:41:04;;;;;;;28.80;15.77;;;;;;;;;;4462513;32;20271;-52
2022/03/24 07:43:30;;;;;;;54.93;25.37;;;;;;;;;;4462570;32;20258;-52
2022/03/24 07:45:55;;;;;;;135.57;68.47;;;;;;;;;;4462877;32;20354;-53
2022/03/24 07:48:28;;;;;;;84.70;43.63;;;;;;;;;;4461867;32;20782;-54
2022/03/24 07:50:55;;;;;;;53.07;33.27;;;;;;;;;;4451263;32;20304;-52
2022/03/24 07:53:58;;;;;;;37.27;18.60;;;;;;;;;;4447670;32;20307;-53
2022/03/24 07:56:25;;;;;;;39.50;21.97;;;;;;;;;;4455552;32;20307;-53
2022/03/24 07:58:52;;;;;;;54.00;25.53;;;;;;;;;;4451957;32;20327;-52
2022/03/24 08:01:26;;;;;;;27.67;14.10;;;;;;;;;;4455347;32;20262;-53
2022/03/24 08:03:53;;;;;;;20.93;12.17;;;;;;;;;;4449972;32;20240;-53
2022/03/24 08:06:20;;;;;;;16.23;9.27;;;;;;;;;;4458118;32;20251;-53
2022/03/24 08:08:46;;;;;;;24.63;8.50;;;;;;;;;;4465109;32;20393;-52
2022/03/24 08:11:11;;;;;;;22.80;13.93;;;;;;;;;;4465089;32;20331;-53
2022/03/24 08:13:36;;;;;;;41.40;25.33;;;;;;;;;;4458473;32;20244;-52
2022/03/24 08:16:03;;;;;;;19.77;11.60;;;;;;;;;;4450055;32;20310;-54
2022/03/24 08:18:28;;;;;;;14.23;8.50;;;;;;;;;;4449159;32;20684;-52
2022/03/24 08:20:54;;;;;;;27.27;8.63;;;;;;;;;;4450342;32;20283;-54
2022/03/24 08:23:21;;;;;;;19.77;9.17;;;;;;;;;;4450370;32;20224;-54
2022/03/24 08:25:46;;;;;;;17.80;8.47;;;;;;;;;;4465550;32;20200;-53
2022/03/24 08:28:12;;;;;;;19.20;8.30;;;;;;;;;;4450145;32;20585;-53
2022/03/24 08:30:39;;;;;;;26.00;12.87;;;;;;;;;;4453564;32;20322;-52
2022/03/24 08:33:05;;;;;;;19.87;11.67;;;;;;;;;;4465191;32;20253;-52
2022/03/24 08:35:31;;;;;;;18.87;9.83;;;;;;;;;;4465367;32;20331;-52
2022/03/24 08:37:56;;;;;;;23.70;13.97;;;;;;;;;;4465665;32;20224;-53
2022/03/24 08:40:23;;;;;;;16.03;9.43;;;;;;;;;;4465450;32;20301;-53
2022/03/24 08:42:48;;;;;;;22.20;9.20;;;;;;;;;;4463641;32;20278;-53
2022/03/24 08:45:15;;;;;;;30.50;14.40;;;;;;;;;;4465400;32;20710;-53
2022/03/24 08:47:41;;;;;;;20.83;10.53;;;;;;;;;;4462178;32;20232;-53
2022/03/24 08:50:09;;;;;;;22.13;10.03;;;;;;;;;;4454367;32;20221;-53
2022/03/24 08:52:36;;;;;;;54.67;21.47;;;;;;;;;;4452705;32;20724;-52
2022/03/24 08:55:05;;;;;;;35.53;16.77;;;;;;;;;;4449334;32;20284;-54
2022/03/24 08:57:31;;;;;;;72.77;32.07;;;;;;;;;;4454316;32;20603;-52
2022/03/24 09:00:02;;;;;;;20.63;8.97;;;;;;;;;;4464808;32;20267;-54
2022/03/24 09:02:28;;;;;;;26.73;11.97;;;;;;;;;;4457443;32;20223;-53
2022/03/24 09:04:54;;;;;;;19.10;8.67;;;;;;;;;;4460222;32;20287;-53
2022/03/24 09:07:20;;;;;;;20.53;8.20;;;;;;;;;;4464315;32;20299;-52
2022/03/24 09:09:45;;;;;;;16.13;9.37;;;;;;;;;;4458640;32;20323;-53
2022/03/24 09:12:12;;;;;;;24.33;10.50;;;;;;;;;;4450083;32;20192;-52
2022/03/24 09:14:38;;;;;;;32.37;14.77;;;;;;;;;;4450200;32;20324;-52
2022/03/24 09:17:05;;;;;;;24.67;9.63;;;;;;;;;;4449423;32;20204;-52
2022/03/24 09:19:31;;;;;;;20.27;9.93;;;;;;;;;;4449557;32;20229;-52
2022/03/24 09:21:57;;;;;;;26.07;11.90;;;;;;;;;;4448542;32;20315;-52
2022/03/24 09:24:23;;;;;;;19.17;9.07;;;;;;;;;;4449745;32;20684;-54
2022/03/24 09:26:48;;;;;;;29.30;12.60;;;;;;;;;;4449146;32;20583;-54
2022/03/24 09:29:14;;;;;;;24.97;12.43;;;;;;;;;;4449620;32;20640;-53
2022/03/24 09:31:40;;;;;;;18.07;9.83;;;;;;;;;;4449093;32;20652;-53
2022/03/24 09:34:05;;;;;;;17.53;9.60;;;;;;;;;;4452265;32;20377;-53
2022/03/24 09:36:31;;;;;;;31.90;10.47;;;;;;;;;;4453558;32;20238;-53
2022/03/24 09:38:56;;;;;;;25.03;8.50;;;;;;;;;;4449222;32;20290;-54
2022/03/24 09:41:26;;;;;;;21.63;9.37;;;;;;;;;;4448393;32;20701;-53
2022/03/24 09:43:53;;;;;;;17.17;8.83;;;;;;;;;;4448095;32;20618;-54
2022/03/24 09:46:20;;;;;;;17.77;9.40;;;;;;;;;;4449196;32;20204;-52
2022/03/24 09:48:45;;;;;;;13.03;7.00;;;;;;;;;;4448952;32;20377;-53
2022/03/24 09:51:11;;;;;;;17.27;7.73;;;;;;;;;;4448948;32;20753;-52
2022/03/24 09:53:39;;;;;;;21.27;10.97;;;;;;;;;;4447878;32;20634;-52
2022/03/24 09:56:06;;;;;;;15.60;8.20;;;;;;;;;;4456914;32;20211;-53
2022/03/24 09:58:31;;;;;;;19.00;9.20;;;;;;;;;;4452957;32;20372;-53
2022/03/24 10:00:57;;;;;;;15.17;8.00;;;;;;;;;;4453396;32;20589;-53
2022/03/24 10:03:22;;;;;;;10.07;6.97;;;;;;;;;;4450933;32;20257;-53
2022/03/24 10:06:00;;;;;;;15.27;7.07;;;;;;;;;;4453488;32;20378;-53
2022/03/24 10:08:27;;;;;;;22.17;8.03;;;;;;;;;;4448629;32;20355;-53
2022/03/24 10:10:58;;;;;;;22.20;7.70;;;;;;;;;;4448397;32;20640;-53
2022/03/24 10:13:40;;;;;;;10.00;6.67;;;;;;;;;;4448627;32;20264;-53
2022/03/24 10:16:06;;;;;;;13.40;7.33;;;;;;;;;;4448796;32;20264;-53
2022/03/24 10:18:31;;;;;;;20.03;7.33;;;;;;;;;;4448125;32;20280;-54
2022/03/24 10:21:00;;;;;;;15.93;6.37;;;;;;;;;;4448572;32;20648;-54
2022/03/24 10:23:26;;;;;;;11.37;7.50;;;;;;;;;;4448710;32;20373;-53
2022/03/24 10:25:52;;;;;;;12.50;5.97;;;;;;;;;;4447164;32;20677;-56
2022/03/24 10:28:18;;;;;;;25.10;8.53;;;;;;;;;;4448931;32;20552;-53
2022/03/24 10:30:54;;;;;;;20.37;7.63;;;;;;;;;;4447962;32;20299;-54
2022/03/24 10:33:33;;;;;;;12.68;7.03;;;;;;;;;;4448728;32;20788;-54
2022/03/24 10:36:13;;;;;;;16.93;7.43;;;;;;;;;;4448566;32;20608;-53
2022/03/24 10:38:42;;;;;;;15.63;7.40;;;;;;;;;;4448365;32;20259;-55
2022/03/24 10:41:28;;;;;;;22.93;7.60;;;;;;;;;;4447189;32;20208;-54
2022/03/24 10:44:04;;;;;;;11.37;7.00;;;;;;;;;;4449084;32;20208;-53
2022/03/24 10:46:33;;;;;;;8.20;5.18;;;;;;;;;;4448694;32;20192;-53
2022/03/24 10:49:14;;;;;;;17.10;4.83;;;;;;;;;;4447161;32;20264;-53
2022/03/24 10:51:46;;;;;;;9.75;4.78;;;;;;;;;;4447897;32;20235;-53
2022/03/24 10:54:28;;;;;;;9.55;5.37;;;;;;;;;;4446450;32;20477;-55
2022/03/24 10:56:53;;;;;;;8.73;4.95;;;;;;;;;;4448489;32;20254;-54
2022/03/24 10:59:20;;;;;;;10.45;4.50;;;;;;;;;;4462761;32;20632;-54
2022/03/24 11:01:47;;;;;;;14.70;4.87;;;;;;;;;;4452575;32;20555;-54
2022/03/24 11:04:13;;;;;;;9.93;3.72;;;;;;;;;;4448023;32;20658;-54
2022/03/24 11:06:48;;;;;;;8.00;4.97;;;;;;;;;;4462571;32;20250;-53
2022/03/24 11:09:25;;;;;;;10.65;4.53;;;;;;;;;;4462767;32;20232;-55
2022/03/24 11:12:28;;;;;;;10.82;5.03;;;;;;;;;;4463397;32;20257;-54
2022/03/24 11:14:59;;;;;;;13.35;4.18;;;;;;;;;;4463501;32;20606;-54
2022/03/24 11:17:27;;;;;;;11.90;5.50;;;;;;;;;;4463593;32;20626;-54
2022/03/24 11:20:04;;;;;;;8.75;4.93;;;;;;;;;;4463877;32;20584;-53
2022/03/24 11:22:35;;;;;;;11.73;4.78;;;;;;;;;;4463100;32;20247;-53
2022/03/24 11:25:01;;;;;;;13.20;4.90;;;;;;;;;;4462632;32;20200;-54
2022/03/24 11:27:28;;;;;;;7.62;4.07;;;;;;;;;;4463264;32;20239;-53
2022/03/24 11:29:54;;;;;;;10.55;4.85;;;;;;;;;;4464402;32;20688;-55
2022/03/24 11:32:19;;;;;;;14.93;6.43;;;;;;;;;;4466062;32;20200;-53
2022/03/24 11:34:45;;;;;;;13.15;6.18;;;;;;;;;;4465964;32;20266;-54
2022/03/24 11:37:11;;;;;;;12.82;4.95;;;;;;;;;;4466106;32;20250;-54
2022/03/24 11:39:36;;;;;;;5.75;3.47;;;;;;;;;;4466314;32;20316;-53
2022/03/24 11:42:03;;;;;;;17.60;6.32;;;;;;;;;;4466275;32;20229;-53
2022/03/24 11:44:45;;;;;;;23.77;9.73;;;;;;;;;;4467028;32;20232;-52
2022/03/24 11:47:12;;;;;;;11.93;5.45;;;;;;;;;;4465529;32;20240;-54
2022/03/24 11:49:38;;;;;;;15.23;6.80;;;;;;;;;;4465816;32;20208;-54
2022/03/24 11:52:04;;;;;;;26.45;5.03;;;;;;;;;;4453316;32;20241;-53
2022/03/24 11:54:31;;;;;;;8.18;4.78;;;;;;;;;;4450713;32;20224;-53
2022/03/24 11:57:22;;;;;;;23.38;7.85;;;;;;;;;;4451560;32;20228;-55
2022/03/24 11:59:49;;;;;;;19.58;9.45;;;;;;;;;;4450897;32;20897;-54
2022/03/24 12:02:19;;;;;;;25.10;8.80;;;;;;;;;;4456433;32;20246;-53
2022/03/24 12:04:58;;;;;;;12.27;5.03;;;;;;;;;;4461811;32;20885;-54
2022/03/24 12:07:25;;;;;;;24.75;9.35;;;;;;;;;;4465644;32;20719;-54
2022/03/24 12:10:01;;;;;;;53.90;19.80;;;;;;;;;;4465159;32;20300;-54
2022/03/24 12:12:27;;;;;;;12.95;5.05;;;;;;;;;;4465178;32;20252;-54
2022/03/24 12:14:55;;;;;;;7.40;5.12;;;;;;;;;;4466471;32;20345;-55
2022/03/24 12:17:30;;;;;;;13.95;6.55;;;;;;;;;;4466249;32;20244;-52
2022/03/24 12:19:57;;;;;;;12.35;5.25;;;;;;;;;;4466609;32;20631;-53
2022/03/24 12:22:25;;;;;;;22.55;9.07;;;;;;;;;;4466230;32;20231;-53
2022/03/24 12:25:00;;;;;;;14.05;6.85;;;;;;;;;;4465962;32;20248;-54
2022/03/24 12:27:33;;;;;;;10.98;4.72;;;;;;;;;;4466517;32;20950;-53
2022/03/24 12:30:18;;;;;;;20.62;5.35;;;;;;;;;;4465697;32;20227;-53
2022/03/24 12:33:02;;;;;;;9.35;4.62;;;;;;;;;;4462350;32;20220;-54
2022/03/24 12:35:49;;;;;;;9.65;5.32;;;;;;;;;;4450345;32;20215;-53
2022/03/24 12:38:41;;;;;;;18.20;9.25;;;;;;;;;;4448798;32;20268;-53
2022/03/24 12:41:06;;;;;;;8.20;4.22;;;;;;;;;;4449561;32;20280;-53
2022/03/24 12:43:49;;;;;;;18.48;9.27;;;;;;;;;;4450584;32;20710;-53
2022/03/24 12:46:37;;;;;;;11.57;3.97;;;;;;;;;;4450955;32;20185;-53
2022/03/24 12:49:11;;;;;;;9.63;5.47;;;;;;;;;;4450126;32;20259;-55
2022/03/24 12:52:06;;;;;;;7.87;4.18;;;;;;;;;;4450351;32;20256;-54
2022/03/24 12:54:48;;;;;;;5.35;3.40;;;;;;;;;;4449860;32;20224;-55
2022/03/24 12:57:21;;;;;;;14.45;5.10;;;;;;;;;;4452011;32;20309;-54
2022/03/24 12:59:47;;;;;;;11.10;3.72;;;;;;;;;;4450126;32;20269;-54
2022/03/24 13:02:12;;;;;;;10.38;6.47;;;;;;;;;;4455608;32;20264;-53
2022/03/24 13:04:38;;;;;;;14.75;7.80;;;;;;;;;;4462316;32;20310;-55
2022/03/24 13:07:05;;;;;;;8.98;4.40;;;;;;;;;;4462890;32;20541;-54
2022/03/24 13:09:31;;;;;;;6.43;3.85;;;;;;;;;;4465576;32;20224;-53
2022/03/24 13:12:01;;;;;;;19.05;7.30;;;;;;;;;;4465358;32;20634;-54
2022/03/24 13:14:27;;;;;;;8.35;4.62;;;;;;;;;;4464651;32;20223;-53
2022/03/24 13:17:00;;;;;;;7.97;4.03;;;;;;;;;;4465526;32;20256;-53
2022/03/24 13:19:27;;;;;;;5.97;3.10;;;;;;;;;;4465894;32;20307;-53
2022/03/24 13:21:53;;;;;;;9.15;4.43;;;;;;;;;;4465795;32;20596;-54
2022/03/24 13:24:20;;;;;;;8.88;3.45;;;;;;;;;;4465419;32;20258;-54
2022/03/24 13:27:00;;;;;;;6.35;3.78;;;;;;;;;;4465245;32;20283;-54
2022/03/24 13:29:44;;;;;;;4.75;3.58;;;;;;;;;;4459150;32;20248;-54
2022/03/24 13:32:15;;;;;;;15.18;6.68;;;;;;;;;;4449530;32;20197;-54
2022/03/24 13:34:53;;;;;;;16.05;7.25;;;;;;;;;;4449266;32;20816;-55
2022/03/24 13:37:21;;;;;;;6.35;4.35;;;;;;;;;;4449109;32;20192;-55
2022/03/24 13:39:53;;;;;;;7.93;4.35;;;;;;;;;;4449324;32;20200;-55
2022/03/24 13:42:20;;;;;;;8.68;4.10;;;;;;;;;;4449795;32;20205;-53
2022/03/24 13:44:46;;;;;;;5.97;4.05;;;;;;;;;;4449535;32;20643;-55
2022/03/24 13:47:14;;;;;;;15.90;7.90;;;;;;;;;;4449087;32;20585;-53
2022/03/24 13:49:40;;;;;;;8.68;4.75;;;;;;;;;;4449129;32;20812;-53
2022/03/24 13:52:07;;;;;;;8.35;4.18;;;;;;;;;;4450488;32;20271;-52
2022/03/24 13:54:34;;;;;;;12.23;5.78;;;;;;;;;;4465089;32;20227;-54
2022/03/24 13:57:00;;;;;;;13.85;7.30;;;;;;;;;;4450267;32;20217;-53
2022/03/24 13:59:27;;;;;;;11.00;5.93;;;;;;;;;;4451010;32;20826;-53
2022/03/24 14:01:59;;;;;;;5.87;3.45;;;;;;;;;;4453563;32;20213;-53
2022/03/24 14:04:25;;;;;;;7.70;4.45;;;;;;;;;;4449405;32;20225;-53
2022/03/24 14:07:07;;;;;;;11.00;4.68;;;;;;;;;;4449373;32;20228;-54
2022/03/24 14:09:33;;;;;;;23.67;8.48;;;;;;;;;;4449241;32;20358;-54
2022/03/24 14:12:06;;;;;;;11.63;6.07;;;;;;;;;;4449188;32;20200;-54
2022/03/24 14:14:32;;;;;;;18.87;6.18;;;;;;;;;;4448780;32;20339;-55
2022/03/24 14:16:58;;;;;;;20.33;9.55;;;;;;;;;;4447827;32;20272;-54
2022/03/24 14:19:26;;;;;;;39.22;19.00;;;;;;;;;;4449068;32;20228;-54
2022/03/24 14:22:05;;;;;;;22.98;12.57;;;;;;;;;;4448879;32;20603;-54
2022/03/24 14:24:43;;;;;;;17.05;8.77;;;;;;;;;;4454059;32;20662;-53
2022/03/24 14:27:25;;;;;;;12.93;6.40;;;;;;;;;;4449016;32;20314;-53
2022/03/24 14:30:17;;;;;;;7.53;4.37;;;;;;;;;;4448722;32;20193;-54